sensor_id;sensor_type;location;lat;lon;timestamp;pressure;altitude;pressure_sealevel;temperature;humidity
39309;BME280;26019;47.510;19.122;2023-04-27T00:09:14;100415.75;;;4.10;100.00
39309;BME280;26019;47.510;19.122;2023-04-27T00:19:17;100419.00;;;4.02;100.00
39309;BME280;26019;47.510;19.122;2023-04-27T00:29:19;100410.84;;;4.19;100.00
39309;BME280;26019;47.510;19.122;2023-04-27T00:39:21;100419.81;;;4.40;100.00
39309;BME280;26019;47.510;19.122;2023-04-27T00:49:25;100425.94;;;4.46;100.00
39309;BME280;26019;47.510;19.122;2023-04-27T00:59:27;100419.56;;;3.89;100.00
39309;BME280;26019;47.510;19.122;2023-04-27T01:09:30;100417.69;;;3.80;100.00
39309;BME280;26019;47.510;19.122;2023-04-27T01:19:32;100419.44;;;3.48;100.00
39309;BME280;26019;47.510;19.122;2023-04-27T01:29:34;100426.44;;;3.55;100.00
39309;BME280;26019;47.510;19.122;2023-04-27T01:39:36;100432.59;;;3.28;100.00
39309;BME280;26019;47.510;19.122;2023-04-27T01:49:40;100435.19;;;2.96;100.00
39309;BME280;26019;47.510;19.122;2023-04-27T01:59:49;100443.75;;;2.98;100.00
39309;BME280;26019;47.510;19.122;2023-04-27T02:09:56;100446.66;;;3.12;100.00
39309;BME280;26019;47.510;19.122;2023-04-27T02:19:58;100446.31;;;2.69;100.00
39309;BME280;26019;47.510;19.122;2023-04-27T02:30:09;100448.09;;;2.41;100.00
39309;BME280;26019;47.510;19.122;2023-04-27T02:40:12;100466.59;;;2.63;100.00
39309;BME280;26019;47.510;19.122;2023-04-27T02:50:44;100471.00;;;2.68;100.00
39309;BME280;26019;47.510;19.122;2023-04-27T03:01:13;100482.41;;;2.81;100.00
39309;BME280;26019;47.510;19.122;2023-04-27T03:11:15;100487.00;;;2.63;100.00
39309;BME280;26019;47.510;19.122;2023-04-27T03:21:17;100481.00;;;2.32;100.00
39309;BME280;26019;47.510;19.122;2023-04-27T03:31:19;100499.38;;;2.21;100.00
39309;BME280;26019;47.510;19.122;2023-04-27T03:41:20;100504.69;;;2.28;100.00
39309;BME280;26019;47.510;19.122;2023-04-27T03:51:23;100508.75;;;2.22;100.00
39309;BME280;26019;47.510;19.122;2023-04-27T04:01:25;100518.25;;;2.27;100.00
39309;BME280;26019;47.510;19.122;2023-04-27T04:11:27;100528.16;;;2.45;100.00
39309;BME280;26019;47.510;19.122;2023-04-27T04:21:32;100543.16;;;2.63;100.00
39309;BME280;26019;47.510;19.122;2023-04-27T04:31:34;100550.44;;;2.79;100.00
39309;BME280;26019;47.510;19.122;2023-04-27T04:41:42;100559.69;;;3.06;100.00
39309;BME280;26019;47.510;19.122;2023-04-27T04:51:44;100560.44;;;3.33;100.00
39309;BME280;26019;47.510;19.122;2023-04-27T05:01:48;100566.41;;;3.65;100.00
39309;BME280;26019;47.510;19.122;2023-04-27T05:12:09;100583.66;;;4.08;100.00
39309;BME280;26019;47.510;19.122;2023-04-27T05:22:14;100595.47;;;4.38;100.00
39309;BME280;26019;47.510;19.122;2023-04-27T05:32:19;100599.84;;;4.80;100.00
39309;BME280;26019;47.510;19.122;2023-04-27T05:42:21;100608.50;;;5.25;100.00
39309;BME280;26019;47.510;19.122;2023-04-27T05:52:24;100617.34;;;5.86;99.98
39309;BME280;26019;47.510;19.122;2023-04-27T06:02:32;100622.94;;;6.64;86.54
39309;BME280;26019;47.510;19.122;2023-04-27T06:12:39;100623.84;;;8.16;65.08
39309;BME280;26019;47.510;19.122;2023-04-27T06:22:41;100630.75;;;9.62;56.36
39309;BME280;26019;47.510;19.122;2023-04-27T06:32:43;100638.63;;;10.24;49.06
39309;BME280;26019;47.510;19.122;2023-04-27T06:42:44;100642.94;;;10.49;46.46
39309;BME280;26019;47.510;19.122;2023-04-27T06:52:46;100645.53;;;10.69;43.58
39309;BME280;26019;47.510;19.122;2023-04-27T07:02:48;100645.50;;;10.31;42.59
39309;BME280;26019;47.510;19.122;2023-04-27T07:12:56;100644.63;;;10.22;43.18
39309;BME280;26019;47.510;19.122;2023-04-27T07:22:58;100650.69;;;10.58;43.20
39309;BME280;26019;47.510;19.122;2023-04-27T07:32:59;100664.47;;;10.93;40.94
39309;BME280;26019;47.510;19.122;2023-04-27T07:43:01;100659.88;;;11.66;39.56
39309;BME280;26019;47.510;19.122;2023-04-27T07:53:10;100643.09;;;12.31;38.93
39309;BME280;26019;47.510;19.122;2023-04-27T08:03:20;100645.03;;;11.99;36.72
39309;BME280;26019;47.510;19.122;2023-04-27T08:13:24;100645.19;;;12.88;32.75
39309;BME280;26019;47.510;19.122;2023-04-27T08:23:27;100644.66;;;14.00;29.37
39309;BME280;26019;47.510;19.122;2023-04-27T08:33:29;100653.53;;;15.39;29.18
39309;BME280;26019;47.510;19.122;2023-04-27T08:43:33;100647.72;;;14.79;29.80
39309;BME280;26019;47.510;19.122;2023-04-27T08:53:35;100641.19;;;15.47;29.95
39309;BME280;26019;47.510;19.122;2023-04-27T09:03:37;100630.91;;;17.51;29.21
39309;BME280;26019;47.510;19.122;2023-04-27T09:13:41;100627.50;;;17.19;27.95
39309;BME280;26019;47.510;19.122;2023-04-27T09:23:46;100628.63;;;15.26;29.54
39309;BME280;26019;47.510;19.122;2023-04-27T09:33:57;100616.09;;;22.53;22.82
39309;BME280;26019;47.510;19.122;2023-04-27T09:43:58;100620.69;;;18.54;26.33
39309;BME280;26019;47.510;19.122;2023-04-27T09:54:02;100607.28;;;20.25;25.60
39309;BME280;26019;47.510;19.122;2023-04-27T10:04:26;100595.44;;;24.83;19.84
39309;BME280;26019;47.510;19.122;2023-04-27T10:14:35;100600.81;;;17.94;23.38
39309;BME280;26019;47.510;19.122;2023-04-27T10:24:39;100579.97;;;26.67;18.23
39309;BME280;26019;47.510;19.122;2023-04-27T10:34:43;100596.25;;;25.69;16.09
39309;BME280;26019;47.510;19.122;2023-04-27T10:44:55;100575.03;;;23.81;18.61
39309;BME280;26019;47.510;19.122;2023-04-27T10:55:13;100584.22;;;29.54;14.54
39309;BME280;26019;47.510;19.122;2023-04-27T11:05:24;100576.38;;;26.94;16.39
39309;BME280;26019;47.510;19.122;2023-04-27T11:15:30;100576.44;;;30.59;13.58
39309;BME280;26019;47.510;19.122;2023-04-27T11:25:33;100578.84;;;21.91;18.63
39309;BME280;26019;47.510;19.122;2023-04-27T11:35:35;100562.59;;;30.44;13.52
39309;BME280;26019;47.510;19.122;2023-04-27T11:45:41;100547.16;;;33.29;12.17
39309;BME280;26019;47.510;19.122;2023-04-27T11:55:50;100569.53;;;28.13;14.90
39309;BME280;26019;47.510;19.122;2023-04-27T12:05:52;100561.69;;;29.14;12.80
39309;BME280;26019;47.510;19.122;2023-04-27T12:15:55;100565.41;;;29.34;12.39
39309;BME280;26019;47.510;19.122;2023-04-27T12:25:59;100555.34;;;31.77;12.81
39309;BME280;26019;47.510;19.122;2023-04-27T12:36:04;100547.44;;;32.05;12.45
39309;BME280;26019;47.510;19.122;2023-04-27T12:46:10;100548.47;;;35.02;11.05
39309;BME280;26019;47.510;19.122;2023-04-27T12:56:14;100545.50;;;30.77;12.60
39309;BME280;26019;47.510;19.122;2023-04-27T13:06:16;100553.94;;;29.67;12.67
39309;BME280;26019;47.510;19.122;2023-04-27T13:16:18;100555.19;;;30.78;12.25
39309;BME280;26019;47.510;19.122;2023-04-27T13:26:22;100546.78;;;31.43;10.97
39309;BME280;26019;47.510;19.122;2023-04-27T13:36:33;100544.28;;;29.21;12.31
39309;BME280;26019;47.510;19.122;2023-04-27T13:46:40;100543.91;;;30.44;13.21
39309;BME280;26019;47.510;19.122;2023-04-27T13:56:42;100545.78;;;23.53;17.89
39309;BME280;26019;47.510;19.122;2023-04-27T14:06:44;100549.28;;;31.55;12.21
39309;BME280;26019;47.510;19.122;2023-04-27T14:16:46;100550.91;;;33.91;10.89
39309;BME280;26019;47.510;19.122;2023-04-27T14:26:48;100554.56;;;36.11;9.49
39309;BME280;26019;47.510;19.122;2023-04-27T14:36:51;100560.13;;;37.29;8.41
39309;BME280;26019;47.510;19.122;2023-04-27T14:46:53;100559.91;;;32.34;11.09
39309;BME280;26019;47.510;19.122;2023-04-27T14:56:55;100561.75;;;30.43;11.56
39309;BME280;26019;47.510;19.122;2023-04-27T15:07:02;100566.09;;;29.48;12.75
39309;BME280;26019;47.510;19.122;2023-04-27T15:17:05;100558.09;;;34.43;10.25
39309;BME280;26019;47.510;19.122;2023-04-27T15:27:08;100564.16;;;30.77;12.76
39309;BME280;26019;47.510;19.122;2023-04-27T15:37:12;100558.88;;;29.27;11.90
39309;BME280;26019;47.510;19.122;2023-04-27T15:47:17;100558.00;;;24.31;15.58
39309;BME280;26019;47.510;19.122;2023-04-27T15:57:19;100559.19;;;28.67;13.14
39309;BME280;26019;47.510;19.122;2023-04-27T16:07:21;100566.66;;;27.43;14.44
39309;BME280;26019;47.510;19.122;2023-04-27T16:17:26;100563.75;;;27.60;14.07
39309;BME280;26019;47.510;19.122;2023-04-27T16:27:28;100576.69;;;26.77;15.29
39309;BME280;26019;47.510;19.122;2023-04-27T16:37:30;100582.66;;;25.88;16.24
39309;BME280;26019;47.510;19.122;2023-04-27T16:47:33;100587.28;;;23.18;17.51
39309;BME280;26019;47.510;19.122;2023-04-27T16:57:35;100599.47;;;18.61;22.85
39309;BME280;26019;47.510;19.122;2023-04-27T17:07:39;100604.63;;;15.91;27.01
39309;BME280;26019;47.510;19.122;2023-04-27T17:17:41;100607.19;;;14.14;31.28
39309;BME280;26019;47.510;19.122;2023-04-27T17:27:45;100602.69;;;13.69;31.23
39309;BME280;26019;47.510;19.122;2023-04-27T17:37:48;100614.66;;;13.12;33.87
39309;BME280;26019;47.510;19.122;2023-04-27T17:47:50;100624.09;;;12.32;34.39
39309;BME280;26019;47.510;19.122;2023-04-27T17:57:56;100630.53;;;11.72;36.84
39309;BME280;26019;47.510;19.122;2023-04-27T18:07:59;100637.66;;;11.17;37.50
39309;BME280;26019;47.510;19.122;2023-04-27T18:18:07;100645.50;;;10.78;39.94
39309;BME280;26019;47.510;19.122;2023-04-27T18:28:14;100655.84;;;10.66;43.36
39309;BME280;26019;47.510;19.122;2023-04-27T18:38:16;100667.88;;;10.14;44.46
39309;BME280;26019;47.510;19.122;2023-04-27T18:48:30;100670.41;;;9.83;46.44
39309;BME280;26019;47.510;19.122;2023-04-27T18:58:53;100669.47;;;9.59;48.22
39309;BME280;26019;47.510;19.122;2023-04-27T19:09:05;100691.69;;;9.32;51.25
39309;BME280;26019;47.510;19.122;2023-04-27T19:19:07;100683.66;;;8.81;53.14
39309;BME280;26019;47.510;19.122;2023-04-27T19:29:10;100702.47;;;8.72;53.61
39309;BME280;26019;47.510;19.122;2023-04-27T19:39:13;100704.94;;;8.57;53.58
39309;BME280;26019;47.510;19.122;2023-04-27T19:49:17;100702.09;;;8.32;56.75
39309;BME280;26019;47.510;19.122;2023-04-27T19:59:19;100702.78;;;8.14;59.80
39309;BME280;26019;47.510;19.122;2023-04-27T20:09:21;100703.56;;;8.03;63.98
39309;BME280;26019;47.510;19.122;2023-04-27T20:19:23;100694.63;;;7.72;68.15
39309;BME280;26019;47.510;19.122;2023-04-27T20:29:38;100707.44;;;7.69;74.70
39309;BME280;26019;47.510;19.122;2023-04-27T20:39:45;100705.47;;;7.47;75.34
39309;BME280;26019;47.510;19.122;2023-04-27T20:49:49;100707.75;;;7.26;81.57
39309;BME280;26019;47.510;19.122;2023-04-27T20:59:50;100725.31;;;6.96;86.70
39309;BME280;26019;47.510;19.122;2023-04-27T21:09:52;100726.75;;;6.79;88.45
39309;BME280;26019;47.510;19.122;2023-04-27T21:19:55;100728.44;;;6.77;90.56
39309;BME280;26019;47.510;19.122;2023-04-27T21:30:21;100742.38;;;6.39;97.35
39309;BME280;26019;47.510;19.122;2023-04-27T21:40:23;100741.28;;;6.26;97.85
39309;BME280;26019;47.510;19.122;2023-04-27T21:50:25;100755.66;;;6.19;100.00
39309;BME280;26019;47.510;19.122;2023-04-27T22:00:27;100761.56;;;6.15;100.00
39309;BME280;26019;47.510;19.122;2023-04-27T22:10:35;100760.34;;;5.96;100.00
39309;BME280;26019;47.510;19.122;2023-04-27T22:20:49;100761.47;;;5.69;100.00
39309;BME280;26019;47.510;19.122;2023-04-27T22:30:51;100767.22;;;5.57;100.00
39309;BME280;26019;47.510;19.122;2023-04-27T22:40:55;100783.94;;;5.40;100.00
39309;BME280;26019;47.510;19.122;2023-04-27T22:50:59;100783.97;;;5.04;100.00
39309;BME280;26019;47.510;19.122;2023-04-27T23:01:01;100781.19;;;4.95;100.00
39309;BME280;26019;47.510;19.122;2023-04-27T23:11:03;100790.50;;;4.91;100.00
39309;BME280;26019;47.510;19.122;2023-04-27T23:21:05;100788.84;;;4.93;100.00
39309;BME280;26019;47.510;19.122;2023-04-27T23:31:12;100792.97;;;4.88;100.00
39309;BME280;26019;47.510;19.122;2023-04-27T23:41:16;100782.88;;;4.59;100.00
39309;BME280;26019;47.510;19.122;2023-04-27T23:51:18;100783.63;;;4.55;100.00
